sensor_id;sensor_type;location;lat;lon;timestamp;temperature;humidity
12837;DHT22;6485;51.472;5.268;2022-11-30T15:15:14;9.40;99.90
12837;DHT22;6485;51.472;5.268;2022-11-30T15:17:46;9.30;99.90
12837;DHT22;6485;51.472;5.268;2022-11-30T15:20:16;9.30;99.90
12837;DHT22;6485;51.472;5.268;2022-11-30T15:22:44;9.30;99.90
12837;DHT22;6485;51.472;5.268;2022-11-30T15:25:12;9.20;99.90
12837;DHT22;6485;51.472;5.268;2022-11-30T15:27:41;9.20;99.90
12837;DHT22;6485;51.472;5.268;2022-11-30T15:30:13;9.10;99.90
12837;DHT22;6485;51.472;5.268;2022-11-30T15:32:46;9.10;99.90
12837;DHT22;6485;51.472;5.268;2022-11-30T15:35:18;9.00;99.90
12837;DHT22;6485;51.472;5.268;2022-11-30T15:37:47;8.90;99.90
12837;DHT22;6485;51.472;5.268;2022-11-30T15:40:20;8.80;99.90
12837;DHT22;6485;51.472;5.268;2022-11-30T15:42:49;8.80;99.90
12837;DHT22;6485;51.472;5.268;2022-11-30T15:45:20;8.70;99.90
12837;DHT22;6485;51.472;5.268;2022-11-30T15:47:48;8.70;99.90
12837;DHT22;6485;51.472;5.268;2022-11-30T15:50:30;8.60;99.90
12837;DHT22;6485;51.472;5.268;2022-11-30T15:52:59;8.60;99.90
12837;DHT22;6485;51.472;5.268;2022-11-30T15:55:38;8.50;99.90
12837;DHT22;6485;51.472;5.268;2022-11-30T15:58:21;8.50;99.90
12837;DHT22;6485;51.472;5.268;2022-11-30T16:01:02;8.40;99.90
12837;DHT22;6485;51.472;5.268;2022-11-30T16:03:32;8.30;99.90
12837;DHT22;6485;51.472;5.268;2022-11-30T16:06:02;8.30;99.90
12837;DHT22;6485;51.472;5.268;2022-11-30T16:08:31;8.30;99.90
12837;DHT22;6485;51.472;5.268;2022-11-30T16:10:59;8.20;99.90
12837;DHT22;6485;51.472;5.268;2022-11-30T16:13:33;8.10;99.90
12837;DHT22;6485;51.472;5.268;2022-11-30T16:16:09;8.10;99.90
12837;DHT22;6485;51.472;5.268;2022-11-30T16:18:53;8.10;99.90
12837;DHT22;6485;51.472;5.268;2022-11-30T16:21:21;8.00;99.90
12837;DHT22;6485;51.472;5.268;2022-11-30T16:23:49;8.00;99.90
12837;DHT22;6485;51.472;5.268;2022-11-30T16:26:18;7.90;99.90
12837;DHT22;6485;51.472;5.268;2022-11-30T16:29:05;7.90;99.90
12837;DHT22;6485;51.472;5.268;2022-11-30T16:31:35;7.90;99.90
12837;DHT22;6485;51.472;5.268;2022-11-30T16:34:04;7.90;99.90
12837;DHT22;6485;51.472;5.268;2022-11-30T16:36:35;7.90;99.90
12837;DHT22;6485;51.472;5.268;2022-11-30T16:39:03;7.90;99.90
12837;DHT22;6485;51.472;5.268;2022-11-30T16:41:32;7.80;99.90
12837;DHT22;6485;51.472;5.268;2022-11-30T16:44:01;7.80;99.90
12837;DHT22;6485;51.472;5.268;2022-11-30T16:46:31;7.80;99.90
12837;DHT22;6485;51.472;5.268;2022-11-30T16:49:00;7.80;99.90
12837;DHT22;6485;51.472;5.268;2022-11-30T16:51:29;7.80;99.90
12837;DHT22;6485;51.472;5.268;2022-11-30T16:53:57;7.80;99.90
12837;DHT22;6485;51.472;5.268;2022-11-30T16:56:26;7.80;99.90
12837;DHT22;6485;51.472;5.268;2022-11-30T16:58:54;7.80;99.90
12837;DHT22;6485;51.472;5.268;2022-11-30T17:01:24;7.80;99.90
12837;DHT22;6485;51.472;5.268;2022-11-30T17:04:01;7.80;99.90
12837;DHT22;6485;51.472;5.268;2022-11-30T17:06:32;7.80;99.90
12837;DHT22;6485;51.472;5.268;2022-11-30T17:09:00;7.80;99.90
12837;DHT22;6485;51.472;5.268;2022-11-30T17:11:30;7.80;99.90
12837;DHT22;6485;51.472;5.268;2022-11-30T17:13:59;7.90;99.90
12837;DHT22;6485;51.472;5.268;2022-11-30T17:16:27;7.90;99.90
12837;DHT22;6485;51.472;5.268;2022-11-30T17:18:55;7.80;99.90
12837;DHT22;6485;51.472;5.268;2022-11-30T17:21:25;7.80;99.90
12837;DHT22;6485;51.472;5.268;2022-11-30T17:23:54;7.90;99.90
12837;DHT22;6485;51.472;5.268;2022-11-30T17:26:22;7.90;99.90
12837;DHT22;6485;51.472;5.268;2022-11-30T17:28:51;7.90;99.90
12837;DHT22;6485;51.472;5.268;2022-11-30T17:31:19;8.00;99.90
12837;DHT22;6485;51.472;5.268;2022-11-30T17:33:47;8.00;99.90
12837;DHT22;6485;51.472;5.268;2022-11-30T17:36:16;8.10;99.90
12837;DHT22;6485;51.472;5.268;2022-11-30T17:38:46;8.00;99.90
12837;DHT22;6485;51.472;5.268;2022-11-30T17:41:15;8.00;99.90
12837;DHT22;6485;51.472;5.268;2022-11-30T17:43:45;8.00;99.90
12837;DHT22;6485;51.472;5.268;2022-11-30T17:46:14;8.00;99.90
12837;DHT22;6485;51.472;5.268;2022-11-30T17:48:43;8.00;99.90
12837;DHT22;6485;51.472;5.268;2022-11-30T17:51:12;8.00;99.90
12837;DHT22;6485;51.472;5.268;2022-11-30T17:53:41;8.00;99.90
12837;DHT22;6485;51.472;5.268;2022-11-30T17:56:12;8.00;99.90
12837;DHT22;6485;51.472;5.268;2022-11-30T17:58:41;8.00;99.90
12837;DHT22;6485;51.472;5.268;2022-11-30T18:01:13;8.00;99.90
12837;DHT22;6485;51.472;5.268;2022-11-30T18:03:42;8.00;99.90
12837;DHT22;6485;51.472;5.268;2022-11-30T18:06:10;8.00;99.90
12837;DHT22;6485;51.472;5.268;2022-11-30T18:08:38;8.10;99.90
12837;DHT22;6485;51.472;5.268;2022-11-30T18:11:06;8.00;99.90
12837;DHT22;6485;51.472;5.268;2022-11-30T18:13:36;8.00;99.90
12837;DHT22;6485;51.472;5.268;2022-11-30T18:16:05;8.00;99.90
12837;DHT22;6485;51.472;5.268;2022-11-30T18:18:33;8.00;99.90
12837;DHT22;6485;51.472;5.268;2022-11-30T18:21:02;8.00;99.90
12837;DHT22;6485;51.472;5.268;2022-11-30T18:23:30;8.00;99.90
12837;DHT22;6485;51.472;5.268;2022-11-30T18:26:00;8.00;99.90
12837;DHT22;6485;51.472;5.268;2022-11-30T18:28:29;8.00;99.90
12837;DHT22;6485;51.472;5.268;2022-11-30T18:30:58;8.10;99.90
12837;DHT22;6485;51.472;5.268;2022-11-30T18:33:26;8.00;99.90
12837;DHT22;6485;51.472;5.268;2022-11-30T18:35:55;8.00;99.90
12837;DHT22;6485;51.472;5.268;2022-11-30T18:38:24;8.00;99.90
12837;DHT22;6485;51.472;5.268;2022-11-30T18:40:52;8.00;99.90
12837;DHT22;6485;51.472;5.268;2022-11-30T18:43:20;8.00;99.90
12837;DHT22;6485;51.472;5.268;2022-11-30T18:45:48;8.00;99.90
12837;DHT22;6485;51.472;5.268;2022-11-30T18:48:18;8.00;99.90
12837;DHT22;6485;51.472;5.268;2022-11-30T18:50:46;8.00;99.90
12837;DHT22;6485;51.472;5.268;2022-11-30T18:53:14;8.00;99.90
12837;DHT22;6485;51.472;5.268;2022-11-30T18:55:44;8.00;99.90
12837;DHT22;6485;51.472;5.268;2022-11-30T18:58:12;8.00;99.90
12837;DHT22;6485;51.472;5.268;2022-11-30T19:00:40;8.00;99.90
12837;DHT22;6485;51.472;5.268;2022-11-30T19:03:08;7.90;99.90
12837;DHT22;6485;51.472;5.268;2022-11-30T19:05:37;7.90;99.90
12837;DHT22;6485;51.472;5.268;2022-11-30T19:08:07;7.90;99.90
12837;DHT22;6485;51.472;5.268;2022-11-30T19:10:37;7.90;99.90
12837;DHT22;6485;51.472;5.268;2022-11-30T19:13:06;7.80;99.90
12837;DHT22;6485;51.472;5.268;2022-11-30T19:15:36;7.80;99.90
12837;DHT22;6485;51.472;5.268;2022-11-30T19:18:06;7.80;99.90
12837;DHT22;6485;51.472;5.268;2022-11-30T19:23:07;7.70;99.90
12837;DHT22;6485;51.472;5.268;2022-11-30T19:25:35;7.70;99.90
12837;DHT22;6485;51.472;5.268;2022-11-30T19:28:03;7.70;99.90
12837;DHT22;6485;51.472;5.268;2022-11-30T19:30:31;7.60;99.90
12837;DHT22;6485;51.472;5.268;2022-11-30T19:33:00;7.60;99.90
12837;DHT22;6485;51.472;5.268;2022-11-30T19:35:27;7.50;99.90
12837;DHT22;6485;51.472;5.268;2022-11-30T19:37:56;7.50;99.90
12837;DHT22;6485;51.472;5.268;2022-11-30T19:40:29;7.40;99.90
12837;DHT22;6485;51.472;5.268;2022-11-30T19:42:57;7.40;99.90
12837;DHT22;6485;51.472;5.268;2022-11-30T19:45:25;7.30;99.90
12837;DHT22;6485;51.472;5.268;2022-11-30T19:47:55;7.30;99.90
12837;DHT22;6485;51.472;5.268;2022-11-30T19:50:24;7.30;99.90
12837;DHT22;6485;51.472;5.268;2022-11-30T19:55:25;7.20;99.90
12837;DHT22;6485;51.472;5.268;2022-11-30T19:57:55;7.20;99.90
12837;DHT22;6485;51.472;5.268;2022-11-30T20:00:23;7.10;99.90
12837;DHT22;6485;51.472;5.268;2022-11-30T20:02:52;7.10;99.90
12837;DHT22;6485;51.472;5.268;2022-11-30T20:05:21;7.20;99.90
12837;DHT22;6485;51.472;5.268;2022-11-30T20:07:49;7.20;99.90
12837;DHT22;6485;51.472;5.268;2022-11-30T20:10:18;7.20;99.90
12837;DHT22;6485;51.472;5.268;2022-11-30T20:12:46;7.20;99.90
12837;DHT22;6485;51.472;5.268;2022-11-30T20:15:16;7.20;99.90
12837;DHT22;6485;51.472;5.268;2022-11-30T20:17:44;7.20;99.90
12837;DHT22;6485;51.472;5.268;2022-11-30T20:20:13;7.30;99.90
12837;DHT22;6485;51.472;5.268;2022-11-30T20:22:41;7.30;99.90
12837;DHT22;6485;51.472;5.268;2022-11-30T20:25:09;7.30;99.90
12837;DHT22;6485;51.472;5.268;2022-11-30T20:27:38;7.30;99.90
12837;DHT22;6485;51.472;5.268;2022-11-30T20:30:07;7.30;99.90
12837;DHT22;6485;51.472;5.268;2022-11-30T20:32:37;7.30;99.90
12837;DHT22;6485;51.472;5.268;2022-11-30T20:35:08;7.40;99.90
12837;DHT22;6485;51.472;5.268;2022-11-30T20:37:37;7.40;99.90
12837;DHT22;6485;51.472;5.268;2022-11-30T20:40:05;7.40;99.90
12837;DHT22;6485;51.472;5.268;2022-11-30T20:42:33;7.40;99.90
12837;DHT22;6485;51.472;5.268;2022-11-30T20:45:02;7.50;99.90
12837;DHT22;6485;51.472;5.268;2022-11-30T20:47:30;7.30;99.90
12837;DHT22;6485;51.472;5.268;2022-11-30T20:50:02;7.40;99.90
12837;DHT22;6485;51.472;5.268;2022-11-30T20:52:32;7.40;99.90
12837;DHT22;6485;51.472;5.268;2022-11-30T20:55:01;7.40;99.90
12837;DHT22;6485;51.472;5.268;2022-11-30T20:57:29;7.40;99.90
12837;DHT22;6485;51.472;5.268;2022-11-30T20:59:58;7.40;99.90
12837;DHT22;6485;51.472;5.268;2022-11-30T21:02:26;7.40;99.90
12837;DHT22;6485;51.472;5.268;2022-11-30T21:04:55;7.40;99.90
12837;DHT22;6485;51.472;5.268;2022-11-30T21:07:25;7.40;99.90
12837;DHT22;6485;51.472;5.268;2022-11-30T21:09:53;7.40;99.90
12837;DHT22;6485;51.472;5.268;2022-11-30T21:12:22;7.40;99.90
12837;DHT22;6485;51.472;5.268;2022-11-30T21:14:50;7.40;99.90
12837;DHT22;6485;51.472;5.268;2022-11-30T21:17:19;7.40;99.90
12837;DHT22;6485;51.472;5.268;2022-11-30T21:19:47;7.40;99.90
12837;DHT22;6485;51.472;5.268;2022-11-30T21:22:15;7.30;99.90
12837;DHT22;6485;51.472;5.268;2022-11-30T21:24:47;7.30;99.90
12837;DHT22;6485;51.472;5.268;2022-11-30T21:27:16;7.30;99.90
12837;DHT22;6485;51.472;5.268;2022-11-30T21:29:44;7.30;99.90
12837;DHT22;6485;51.472;5.268;2022-11-30T21:32:13;7.30;99.90
12837;DHT22;6485;51.472;5.268;2022-11-30T21:34:41;7.30;99.90
12837;DHT22;6485;51.472;5.268;2022-11-30T21:37:10;7.30;99.90
12837;DHT22;6485;51.472;5.268;2022-11-30T21:39:39;7.30;99.90
12837;DHT22;6485;51.472;5.268;2022-11-30T21:42:08;7.30;99.90
12837;DHT22;6485;51.472;5.268;2022-11-30T21:44:37;7.30;99.90
12837;DHT22;6485;51.472;5.268;2022-11-30T21:47:05;7.30;99.90
12837;DHT22;6485;51.472;5.268;2022-11-30T21:49:34;7.30;99.90
12837;DHT22;6485;51.472;5.268;2022-11-30T21:52:02;7.30;99.90
12837;DHT22;6485;51.472;5.268;2022-11-30T21:54:31;7.40;99.90
12837;DHT22;6485;51.472;5.268;2022-11-30T21:56:59;7.40;99.90
12837;DHT22;6485;51.472;5.268;2022-11-30T21:59:29;7.40;99.90
12837;DHT22;6485;51.472;5.268;2022-11-30T22:01:59;7.40;99.90
12837;DHT22;6485;51.472;5.268;2022-11-30T22:04:27;7.40;99.90
12837;DHT22;6485;51.472;5.268;2022-11-30T22:06:55;7.40;99.90
12837;DHT22;6485;51.472;5.268;2022-11-30T22:09:23;7.40;99.90
12837;DHT22;6485;51.472;5.268;2022-11-30T22:11:51;7.40;99.90
12837;DHT22;6485;51.472;5.268;2022-11-30T22:14:21;7.40;99.90
12837;DHT22;6485;51.472;5.268;2022-11-30T22:16:50;7.40;99.90
12837;DHT22;6485;51.472;5.268;2022-11-30T22:19:19;7.30;99.90
12837;DHT22;6485;51.472;5.268;2022-11-30T22:21:47;7.30;99.90
12837;DHT22;6485;51.472;5.268;2022-11-30T22:24:16;7.30;99.90
12837;DHT22;6485;51.472;5.268;2022-11-30T22:26:47;7.30;99.90
12837;DHT22;6485;51.472;5.268;2022-11-30T22:29:16;7.30;99.90
12837;DHT22;6485;51.472;5.268;2022-11-30T22:31:45;7.30;99.90
12837;DHT22;6485;51.472;5.268;2022-11-30T22:34:15;7.30;99.90
12837;DHT22;6485;51.472;5.268;2022-11-30T22:36:43;7.30;99.90
12837;DHT22;6485;51.472;5.268;2022-11-30T22:39:12;7.30;99.90
12837;DHT22;6485;51.472;5.268;2022-11-30T22:41:42;7.30;99.90
12837;DHT22;6485;51.472;5.268;2022-11-30T22:44:18;7.30;99.90
12837;DHT22;6485;51.472;5.268;2022-11-30T22:46:46;7.30;99.90
12837;DHT22;6485;51.472;5.268;2022-11-30T22:49:16;7.30;99.90
12837;DHT22;6485;51.472;5.268;2022-11-30T22:51:47;7.30;99.90
12837;DHT22;6485;51.472;5.268;2022-11-30T22:54:16;7.30;99.90
12837;DHT22;6485;51.472;5.268;2022-11-30T22:56:44;7.30;99.90
12837;DHT22;6485;51.472;5.268;2022-11-30T22:59:12;7.30;99.90
12837;DHT22;6485;51.472;5.268;2022-11-30T23:01:42;7.20;99.90
12837;DHT22;6485;51.472;5.268;2022-11-30T23:04:11;7.30;99.90
12837;DHT22;6485;51.472;5.268;2022-11-30T23:06:41;7.20;99.90
12837;DHT22;6485;51.472;5.268;2022-11-30T23:09:10;7.20;99.90
12837;DHT22;6485;51.472;5.268;2022-11-30T23:11:39;7.20;99.90
12837;DHT22;6485;51.472;5.268;2022-11-30T23:14:07;7.20;99.90
12837;DHT22;6485;51.472;5.268;2022-11-30T23:16:35;7.20;99.90
12837;DHT22;6485;51.472;5.268;2022-11-30T23:19:04;7.20;99.90
12837;DHT22;6485;51.472;5.268;2022-11-30T23:21:32;7.20;99.90
12837;DHT22;6485;51.472;5.268;2022-11-30T23:24:08;7.20;99.90
12837;DHT22;6485;51.472;5.268;2022-11-30T23:26:38;7.20;99.90
12837;DHT22;6485;51.472;5.268;2022-11-30T23:29:08;7.10;99.90
12837;DHT22;6485;51.472;5.268;2022-11-30T23:31:38;7.10;99.90
12837;DHT22;6485;51.472;5.268;2022-11-30T23:34:07;7.10;99.90
12837;DHT22;6485;51.472;5.268;2022-11-30T23:36:36;7.10;99.90
12837;DHT22;6485;51.472;5.268;2022-11-30T23:39:05;7.10;99.90
12837;DHT22;6485;51.472;5.268;2022-11-30T23:41:35;7.10;99.90
12837;DHT22;6485;51.472;5.268;2022-11-30T23:44:03;7.10;99.90
12837;DHT22;6485;51.472;5.268;2022-11-30T23:46:32;7.10;99.90
12837;DHT22;6485;51.472;5.268;2022-11-30T23:49:01;7.10;99.90
12837;DHT22;6485;51.472;5.268;2022-11-30T23:51:29;7.10;99.90
12837;DHT22;6485;51.472;5.268;2022-11-30T23:53:57;7.10;99.90
12837;DHT22;6485;51.472;5.268;2022-11-30T23:56:25;7.10;99.90
12837;DHT22;6485;51.472;5.268;2022-11-30T23:58:54;7.10;99.90
